sensor_id;sensor_type;location;lat;lon;timestamp;pressure;altitude;pressure_sealevel;temperature;humidity
9740;BME280;4909;42.680;26.324;2023-12-04T00:01:12;98954.53;;;5.47;100.00
9740;BME280;4909;42.680;26.324;2023-12-04T00:03:39;99006.59;;;5.81;100.00
9740;BME280;4909;42.680;26.324;2023-12-04T00:06:07;98972.69;;;5.62;100.00
9740;BME280;4909;42.680;26.324;2023-12-04T00:08:35;99012.75;;;5.78;100.00
9740;BME280;4909;42.680;26.324;2023-12-04T00:11:03;98957.44;;;5.34;100.00
9740;BME280;4909;42.680;26.324;2023-12-04T00:13:30;99015.75;;;5.60;100.00
9740;BME280;4909;42.680;26.324;2023-12-04T00:15:57;99027.06;;;5.65;100.00
9740;BME280;4909;42.680;26.324;2023-12-04T00:18:24;99019.53;;;5.47;100.00
9740;BME280;4909;42.680;26.324;2023-12-04T00:20:51;99029.03;;;5.52;100.00
9740;BME280;4909;42.680;26.324;2023-12-04T00:23:18;99019.00;;;5.27;98.43
9740;BME280;4909;42.680;26.324;2023-12-04T00:25:46;99033.28;;;5.12;99.71
9740;BME280;4909;42.680;26.324;2023-12-04T00:28:13;99049.81;;;5.18;99.76
9740;BME280;4909;42.680;26.324;2023-12-04T00:30:40;99039.66;;;4.96;100.00
9740;BME280;4909;42.680;26.324;2023-12-04T00:33:07;99050.13;;;4.99;100.00
9740;BME280;4909;42.680;26.324;2023-12-04T00:35:34;99037.25;;;4.82;100.00
9740;BME280;4909;42.680;26.324;2023-12-04T00:38:01;99036.50;;;4.74;100.00
9740;BME280;4909;42.680;26.324;2023-12-04T00:40:28;99067.25;;;4.69;100.00
9740;BME280;4909;42.680;26.324;2023-12-04T00:42:56;99077.91;;;4.58;100.00
9740;BME280;4909;42.680;26.324;2023-12-04T00:45:23;99012.63;;;4.26;100.00
9740;BME280;4909;42.680;26.324;2023-12-04T00:47:50;99039.63;;;4.37;100.00
9740;BME280;4909;42.680;26.324;2023-12-04T00:50:17;99059.66;;;4.46;100.00
9740;BME280;4909;42.680;26.324;2023-12-04T00:52:44;99075.31;;;4.55;100.00
9740;BME280;4909;42.680;26.324;2023-12-04T00:55:11;99082.34;;;4.55;100.00
9740;BME280;4909;42.680;26.324;2023-12-04T00:57:38;99050.22;;;4.33;100.00
9740;BME280;4909;42.680;26.324;2023-12-04T01:00:08;99053.50;;;4.49;100.00
9740;BME280;4909;42.680;26.324;2023-12-04T01:02:35;99051.09;;;4.33;100.00
9740;BME280;4909;42.680;26.324;2023-12-04T01:05:03;99051.22;;;4.23;100.00
9740;BME280;4909;42.680;26.324;2023-12-04T01:07:30;99013.81;;;4.03;100.00
9740;BME280;4909;42.680;26.324;2023-12-04T01:09:57;99056.47;;;4.21;100.00
9740;BME280;4909;42.680;26.324;2023-12-04T01:12:24;99076.72;;;4.12;100.00
9740;BME280;4909;42.680;26.324;2023-12-04T01:14:51;99053.84;;;4.21;100.00
9740;BME280;4909;42.680;26.324;2023-12-04T01:17:19;99072.28;;;4.17;100.00
9740;BME280;4909;42.680;26.324;2023-12-04T01:19:46;99059.97;;;4.22;100.00
9740;BME280;4909;42.680;26.324;2023-12-04T01:22:13;99045.44;;;3.93;100.00
9740;BME280;4909;42.680;26.324;2023-12-04T01:24:40;99026.50;;;3.67;100.00
9740;BME280;4909;42.680;26.324;2023-12-04T01:27:07;99070.94;;;3.84;99.54
9740;BME280;4909;42.680;26.324;2023-12-04T01:29:35;99079.69;;;3.83;100.00
9740;BME280;4909;42.680;26.324;2023-12-04T01:32:03;99057.84;;;3.78;100.00
9740;BME280;4909;42.680;26.324;2023-12-04T01:34:31;99028.25;;;3.67;100.00
9740;BME280;4909;42.680;26.324;2023-12-04T01:36:58;99075.97;;;4.02;100.00
9740;BME280;4909;42.680;26.324;2023-12-04T01:39:25;99064.81;;;3.83;100.00
9740;BME280;4909;42.680;26.324;2023-12-04T01:41:52;99090.06;;;3.93;100.00
9740;BME280;4909;42.680;26.324;2023-12-04T01:44:19;99084.81;;;3.93;99.80
9740;BME280;4909;42.680;26.324;2023-12-04T01:46:47;99047.34;;;3.79;100.00
9740;BME280;4909;42.680;26.324;2023-12-04T01:49:14;99077.84;;;3.92;100.00
9740;BME280;4909;42.680;26.324;2023-12-04T01:51:43;99044.72;;;3.78;100.00
9740;BME280;4909;42.680;26.324;2023-12-04T01:54:10;99071.69;;;3.97;100.00
9740;BME280;4909;42.680;26.324;2023-12-04T01:56:38;99071.47;;;4.12;100.00
9740;BME280;4909;42.680;26.324;2023-12-04T01:59:04;99073.34;;;4.04;100.00
9740;BME280;4909;42.680;26.324;2023-12-04T02:01:32;99096.75;;;4.22;100.00
9740;BME280;4909;42.680;26.324;2023-12-04T02:03:59;99102.94;;;4.21;100.00
9740;BME280;4909;42.680;26.324;2023-12-04T02:06:27;99083.59;;;4.25;100.00
9740;BME280;4909;42.680;26.324;2023-12-04T02:08:56;99087.94;;;4.27;100.00
9740;BME280;4909;42.680;26.324;2023-12-04T02:11:23;99034.16;;;3.84;98.56
9740;BME280;4909;42.680;26.324;2023-12-04T02:13:50;98978.66;;;3.42;98.64
9740;BME280;4909;42.680;26.324;2023-12-04T02:16:18;99086.47;;;4.02;100.00
9740;BME280;4909;42.680;26.324;2023-12-04T02:18:46;99084.72;;;4.03;100.00
9740;BME280;4909;42.680;26.324;2023-12-04T02:21:13;99058.00;;;3.66;100.00
9740;BME280;4909;42.680;26.324;2023-12-04T02:23:40;99114.69;;;3.83;100.00
9740;BME280;4909;42.680;26.324;2023-12-04T02:26:13;99088.69;;;3.59;100.00
9740;BME280;4909;42.680;26.324;2023-12-04T02:28:45;99100.78;;;3.77;100.00
9740;BME280;4909;42.680;26.324;2023-12-04T02:31:13;99079.13;;;3.52;99.78
9740;BME280;4909;42.680;26.324;2023-12-04T02:33:40;99113.13;;;3.67;100.00
9740;BME280;4909;42.680;26.324;2023-12-04T02:36:10;99098.34;;;3.57;100.00
9740;BME280;4909;42.680;26.324;2023-12-04T02:38:37;99120.97;;;3.69;100.00
9740;BME280;4909;42.680;26.324;2023-12-04T02:41:05;99098.44;;;3.48;99.85
9740;BME280;4909;42.680;26.324;2023-12-04T02:43:33;99136.72;;;3.69;98.84
9740;BME280;4909;42.680;26.324;2023-12-04T02:46:00;99086.19;;;3.45;99.36
9740;BME280;4909;42.680;26.324;2023-12-04T02:48:27;99136.59;;;3.81;99.20
9740;BME280;4909;42.680;26.324;2023-12-04T02:50:54;99069.56;;;3.45;100.00
9740;BME280;4909;42.680;26.324;2023-12-04T02:53:21;99146.16;;;3.89;100.00
9740;BME280;4909;42.680;26.324;2023-12-04T02:55:49;99159.19;;;4.00;99.48
9740;BME280;4909;42.680;26.324;2023-12-04T02:58:16;99153.06;;;4.00;99.48
9740;BME280;4909;42.680;26.324;2023-12-04T03:00:44;99130.31;;;3.97;99.38
9740;BME280;4909;42.680;26.324;2023-12-04T03:03:11;99106.75;;;3.91;95.87
9740;BME280;4909;42.680;26.324;2023-12-04T03:05:38;99138.00;;;4.14;94.70
9740;BME280;4909;42.680;26.324;2023-12-04T03:08:05;99058.69;;;3.83;97.23
9740;BME280;4909;42.680;26.324;2023-12-04T03:10:32;99094.34;;;4.02;94.84
9740;BME280;4909;42.680;26.324;2023-12-04T03:12:59;99124.78;;;4.24;94.47
9740;BME280;4909;42.680;26.324;2023-12-04T03:15:26;99157.00;;;4.40;94.99
9740;BME280;4909;42.680;26.324;2023-12-04T03:17:58;99140.44;;;4.32;96.01
9740;BME280;4909;42.680;26.324;2023-12-04T03:20:25;99093.53;;;3.97;93.24
9740;BME280;4909;42.680;26.324;2023-12-04T03:22:52;99105.63;;;4.15;92.22
9740;BME280;4909;42.680;26.324;2023-12-04T03:25:19;99168.25;;;4.51;89.38
9740;BME280;4909;42.680;26.324;2023-12-04T03:27:46;99176.94;;;4.56;89.04
9740;BME280;4909;42.680;26.324;2023-12-04T03:30:13;99163.09;;;4.41;89.83
9740;BME280;4909;42.680;26.324;2023-12-04T03:32:40;99187.34;;;4.67;86.06
9740;BME280;4909;42.680;26.324;2023-12-04T03:35:08;99129.75;;;4.49;84.89
9740;BME280;4909;42.680;26.324;2023-12-04T03:37:36;99114.09;;;4.36;86.91
9740;BME280;4909;42.680;26.324;2023-12-04T03:40:04;99189.97;;;4.67;83.53
9740;BME280;4909;42.680;26.324;2023-12-04T03:42:31;99176.81;;;4.67;85.57
9740;BME280;4909;42.680;26.324;2023-12-04T03:44:58;99152.59;;;4.41;84.78
9740;BME280;4909;42.680;26.324;2023-12-04T03:47:25;99167.22;;;4.64;87.92
9740;BME280;4909;42.680;26.324;2023-12-04T03:49:52;99178.53;;;4.71;85.95
9740;BME280;4909;42.680;26.324;2023-12-04T03:52:20;99139.31;;;4.51;84.44
9740;BME280;4909;42.680;26.324;2023-12-04T03:54:47;99127.13;;;4.47;80.84
9740;BME280;4909;42.680;26.324;2023-12-04T03:57:14;99198.50;;;4.86;84.14
9740;BME280;4909;42.680;26.324;2023-12-04T03:59:41;99202.06;;;4.81;81.35
9740;BME280;4909;42.680;26.324;2023-12-04T04:02:10;99196.97;;;4.66;81.27
9740;BME280;4909;42.680;26.324;2023-12-04T04:04:37;99198.50;;;4.86;78.16
9740;BME280;4909;42.680;26.324;2023-12-04T04:07:03;99192.28;;;4.91;79.95
9740;BME280;4909;42.680;26.324;2023-12-04T04:09:32;99214.81;;;5.12;79.17
9740;BME280;4909;42.680;26.324;2023-12-04T04:11:59;99174.91;;;4.79;77.16
9740;BME280;4909;42.680;26.324;2023-12-04T04:14:26;99228.72;;;5.20;75.41
9740;BME280;4909;42.680;26.324;2023-12-04T04:16:53;99228.97;;;5.03;74.05
9740;BME280;4909;42.680;26.324;2023-12-04T04:19:20;99205.38;;;4.94;77.39
9740;BME280;4909;42.680;26.324;2023-12-04T04:21:47;99199.59;;;4.69;76.76
9740;BME280;4909;42.680;26.324;2023-12-04T04:24:14;99228.34;;;4.81;78.03
9740;BME280;4909;42.680;26.324;2023-12-04T04:26:42;99204.75;;;4.75;79.73
9740;BME280;4909;42.680;26.324;2023-12-04T04:29:09;99235.38;;;4.82;78.65
9740;BME280;4909;42.680;26.324;2023-12-04T04:31:36;99238.00;;;4.82;78.40
9740;BME280;4909;42.680;26.324;2023-12-04T04:34:03;99233.72;;;4.71;77.12
9740;BME280;4909;42.680;26.324;2023-12-04T04:36:30;99192.03;;;4.39;78.55
9740;BME280;4909;42.680;26.324;2023-12-04T04:38:57;99207.56;;;4.60;75.00
9740;BME280;4909;42.680;26.324;2023-12-04T04:41:24;99115.31;;;4.10;78.73
9740;BME280;4909;42.680;26.324;2023-12-04T04:43:52;99211.00;;;4.67;77.81
9740;BME280;4909;42.680;26.324;2023-12-04T04:46:19;99208.25;;;4.76;75.24
9740;BME280;4909;42.680;26.324;2023-12-04T04:48:47;99218.06;;;4.63;74.87
9740;BME280;4909;42.680;26.324;2023-12-04T04:51:14;99241.63;;;4.72;76.28
9740;BME280;4909;42.680;26.324;2023-12-04T04:53:41;99245.13;;;4.73;76.81
9740;BME280;4909;42.680;26.324;2023-12-04T04:56:09;99187.69;;;4.36;75.30
9740;BME280;4909;42.680;26.324;2023-12-04T04:58:36;99271.31;;;4.80;76.65
9740;BME280;4909;42.680;26.324;2023-12-04T05:01:05;99184.31;;;4.25;76.33
9740;BME280;4909;42.680;26.324;2023-12-04T05:03:32;99204.38;;;4.34;72.93
9740;BME280;4909;42.680;26.324;2023-12-04T05:05:59;99281.81;;;4.84;74.40
9740;BME280;4909;42.680;26.324;2023-12-04T05:08:26;99271.47;;;4.68;75.54
9740;BME280;4909;42.680;26.324;2023-12-04T05:10:52;99290.53;;;4.89;78.11
9740;BME280;4909;42.680;26.324;2023-12-04T05:13:19;99280.19;;;4.70;73.60
9740;BME280;4909;42.680;26.324;2023-12-04T05:15:46;99299.41;;;4.78;73.64
9740;BME280;4909;42.680;26.324;2023-12-04T05:18:14;99299.25;;;4.94;75.23
9740;BME280;4909;42.680;26.324;2023-12-04T05:20:41;99317.59;;;4.97;76.21
9740;BME280;4909;42.680;26.324;2023-12-04T05:23:08;99296.63;;;4.94;74.38
9740;BME280;4909;42.680;26.324;2023-12-04T05:25:35;99247.63;;;4.82;73.66
9740;BME280;4909;42.680;26.324;2023-12-04T05:28:02;99298.25;;;5.01;69.32
9740;BME280;4909;42.680;26.324;2023-12-04T05:30:29;99314.75;;;5.13;71.78
9740;BME280;4909;42.680;26.324;2023-12-04T05:32:56;99309.56;;;5.09;69.79
9740;BME280;4909;42.680;26.324;2023-12-04T05:35:25;99291.00;;;5.22;71.27
9740;BME280;4909;42.680;26.324;2023-12-04T05:37:52;99254.47;;;4.97;70.96
9740;BME280;4909;42.680;26.324;2023-12-04T05:40:19;99274.47;;;5.11;72.10
9740;BME280;4909;42.680;26.324;2023-12-04T05:42:46;99316.97;;;5.48;67.62
9740;BME280;4909;42.680;26.324;2023-12-04T05:45:13;99269.94;;;5.21;66.39
9740;BME280;4909;42.680;26.324;2023-12-04T05:47:40;99227.28;;;4.98;66.83
9740;BME280;4909;42.680;26.324;2023-12-04T05:50:08;99287.28;;;5.37;65.14
9740;BME280;4909;42.680;26.324;2023-12-04T05:52:36;99291.22;;;5.68;65.75
9740;BME280;4909;42.680;26.324;2023-12-04T05:55:04;99322.63;;;5.84;67.36
9740;BME280;4909;42.680;26.324;2023-12-04T05:57:31;99345.19;;;6.04;70.57
9740;BME280;4909;42.680;26.324;2023-12-04T05:59:58;99349.38;;;6.16;67.05
9740;BME280;4909;42.680;26.324;2023-12-04T06:02:25;99285.72;;;5.85;68.12
9740;BME280;4909;42.680;26.324;2023-12-04T06:04:55;99325.97;;;5.96;63.58
9740;BME280;4909;42.680;26.324;2023-12-04T06:07:22;99327.88;;;5.85;63.23
9740;BME280;4909;42.680;26.324;2023-12-04T06:09:51;99307.28;;;5.50;64.61
9740;BME280;4909;42.680;26.324;2023-12-04T06:12:18;99371.75;;;5.88;64.00
9740;BME280;4909;42.680;26.324;2023-12-04T06:14:45;99330.72;;;5.68;67.83
9740;BME280;4909;42.680;26.324;2023-12-04T06:17:12;99301.09;;;5.53;65.29
9740;BME280;4909;42.680;26.324;2023-12-04T06:19:39;99338.41;;;5.84;66.00
9740;BME280;4909;42.680;26.324;2023-12-04T06:22:06;99375.06;;;6.02;64.71
9740;BME280;4909;42.680;26.324;2023-12-04T06:24:33;99378.38;;;6.16;67.15
9740;BME280;4909;42.680;26.324;2023-12-04T06:27:03;99348.91;;;5.90;66.19
9740;BME280;4909;42.680;26.324;2023-12-04T06:29:31;99383.72;;;6.11;66.45
9740;BME280;4909;42.680;26.324;2023-12-04T06:31:59;99378.38;;;6.16;67.08
9740;BME280;4909;42.680;26.324;2023-12-04T06:34:26;99382.28;;;5.86;67.35
9740;BME280;4909;42.680;26.324;2023-12-04T06:36:55;99382.94;;;6.05;67.77
9740;BME280;4909;42.680;26.324;2023-12-04T06:39:22;99384.56;;;6.14;70.04
9740;BME280;4909;42.680;26.324;2023-12-04T06:41:51;99358.44;;;6.00;67.90
9740;BME280;4909;42.680;26.324;2023-12-04T06:44:20;99335.75;;;5.90;65.22
9740;BME280;4909;42.680;26.324;2023-12-04T06:46:49;99369.84;;;5.99;66.62
9740;BME280;4909;42.680;26.324;2023-12-04T06:49:17;99369.69;;;6.09;68.85
9740;BME280;4909;42.680;26.324;2023-12-04T06:51:44;99345.63;;;6.32;71.14
9740;BME280;4909;42.680;26.324;2023-12-04T06:54:11;99368.25;;;6.45;66.51
9740;BME280;4909;42.680;26.324;2023-12-04T06:56:39;99364.66;;;6.49;65.53
9740;BME280;4909;42.680;26.324;2023-12-04T06:59:06;99369.34;;;6.83;67.91
9740;BME280;4909;42.680;26.324;2023-12-04T07:01:34;99385.31;;;6.75;68.04
9740;BME280;4909;42.680;26.324;2023-12-04T07:04:01;99362.53;;;6.73;66.38
9740;BME280;4909;42.680;26.324;2023-12-04T07:06:35;99359.28;;;7.05;69.56
9740;BME280;4909;42.680;26.324;2023-12-04T07:09:02;99370.44;;;7.20;65.83
9740;BME280;4909;42.680;26.324;2023-12-04T07:11:30;99319.84;;;6.97;65.80
9740;BME280;4909;42.680;26.324;2023-12-04T07:13:57;99403.94;;;7.61;63.55
9740;BME280;4909;42.680;26.324;2023-12-04T07:16:24;99372.31;;;7.57;64.31
9740;BME280;4909;42.680;26.324;2023-12-04T07:18:53;99403.81;;;7.66;61.47
9740;BME280;4909;42.680;26.324;2023-12-04T07:21:21;99431.78;;;7.77;63.47
9740;BME280;4909;42.680;26.324;2023-12-04T07:23:48;99390.16;;;7.46;64.46
9740;BME280;4909;42.680;26.324;2023-12-04T07:26:15;99352.00;;;7.17;59.68
9740;BME280;4909;42.680;26.324;2023-12-04T07:28:42;99416.22;;;7.64;62.25
9740;BME280;4909;42.680;26.324;2023-12-04T07:31:09;99403.50;;;7.39;60.94
9740;BME280;4909;42.680;26.324;2023-12-04T07:33:37;99396.28;;;7.48;61.67
9740;BME280;4909;42.680;26.324;2023-12-04T07:36:06;99472.88;;;7.92;63.01
9740;BME280;4909;42.680;26.324;2023-12-04T07:38:34;99455.66;;;7.73;59.34
9740;BME280;4909;42.680;26.324;2023-12-04T07:41:01;99372.22;;;7.17;60.33
9740;BME280;4909;42.680;26.324;2023-12-04T07:43:28;99433.16;;;7.54;62.03
9740;BME280;4909;42.680;26.324;2023-12-04T07:45:55;99425.41;;;7.45;62.52
9740;BME280;4909;42.680;26.324;2023-12-04T07:48:23;99435.78;;;7.54;66.22
9740;BME280;4909;42.680;26.324;2023-12-04T07:50:50;99461.00;;;7.70;65.59
9740;BME280;4909;42.680;26.324;2023-12-04T07:53:19;99463.41;;;7.82;65.14
9740;BME280;4909;42.680;26.324;2023-12-04T07:55:46;99343.19;;;7.17;63.36
9740;BME280;4909;42.680;26.324;2023-12-04T07:58:14;99472.00;;;7.93;62.02
9740;BME280;4909;42.680;26.324;2023-12-04T08:00:41;99469.84;;;8.12;62.22
9740;BME280;4909;42.680;26.324;2023-12-04T08:03:08;99365.53;;;7.45;63.45
9740;BME280;4909;42.680;26.324;2023-12-04T08:05:36;99384.25;;;7.76;63.51
9740;BME280;4909;42.680;26.324;2023-12-04T08:08:03;99407.09;;;8.57;60.36
9740;BME280;4909;42.680;26.324;2023-12-04T08:10:32;99371.03;;;8.53;55.77
9740;BME280;4909;42.680;26.324;2023-12-04T08:12:59;99418.88;;;9.14;57.70
9740;BME280;4909;42.680;26.324;2023-12-04T08:15:26;99384.75;;;9.35;57.96
9740;BME280;4909;42.680;26.324;2023-12-04T08:17:53;99348.06;;;9.52;58.36
9740;BME280;4909;42.680;26.324;2023-12-04T08:20:21;99411.94;;;10.88;57.05
9740;BME280;4909;42.680;26.324;2023-12-04T08:22:49;99363.19;;;11.39;50.79
9740;BME280;4909;42.680;26.324;2023-12-04T08:25:16;99425.72;;;12.22;49.03
9740;BME280;4909;42.680;26.324;2023-12-04T08:27:44;99402.91;;;12.59;51.86
9740;BME280;4909;42.680;26.324;2023-12-04T08:30:11;99383.88;;;12.69;46.79
9740;BME280;4909;42.680;26.324;2023-12-04T08:32:39;99421.97;;;12.71;43.90
9740;BME280;4909;42.680;26.324;2023-12-04T08:35:06;99378.06;;;12.59;48.43
9740;BME280;4909;42.680;26.324;2023-12-04T08:37:33;99424.75;;;12.89;44.64
9740;BME280;4909;42.680;26.324;2023-12-04T08:40:00;99264.97;;;11.82;47.38
9740;BME280;4909;42.680;26.324;2023-12-04T08:42:28;99397.63;;;12.14;47.79
9740;BME280;4909;42.680;26.324;2023-12-04T08:44:56;99423.38;;;11.41;52.25
9740;BME280;4909;42.680;26.324;2023-12-04T08:47:23;99421.25;;;11.51;50.81
9740;BME280;4909;42.680;26.324;2023-12-04T08:49:50;99419.97;;;11.11;53.19
9740;BME280;4909;42.680;26.324;2023-12-04T08:52:17;99422.78;;;10.80;55.11
9740;BME280;4909;42.680;26.324;2023-12-04T08:54:44;99378.88;;;10.44;56.96
9740;BME280;4909;42.680;26.324;2023-12-04T08:57:11;99424.16;;;10.66;53.96
9740;BME280;4909;42.680;26.324;2023-12-04T08:59:38;99413.69;;;10.61;52.94
9740;BME280;4909;42.680;26.324;2023-12-04T09:02:07;99426.19;;;10.30;52.70
9740;BME280;4909;42.680;26.324;2023-12-04T09:04:34;99422.91;;;9.60;58.44
9740;BME280;4909;42.680;26.324;2023-12-04T09:07:01;99411.53;;;9.56;59.27
9740;BME280;4909;42.680;26.324;2023-12-04T09:09:28;99417.56;;;9.63;57.55
9740;BME280;4909;42.680;26.324;2023-12-04T09:11:55;99426.00;;;9.76;54.51
9740;BME280;4909;42.680;26.324;2023-12-04T09:14:22;99403.63;;;9.86;58.38
9740;BME280;4909;42.680;26.324;2023-12-04T09:16:49;99395.88;;;9.78;58.02
9740;BME280;4909;42.680;26.324;2023-12-04T09:19:17;99409.44;;;9.98;57.53
9740;BME280;4909;42.680;26.324;2023-12-04T09:21:44;99380.22;;;9.71;57.19
9740;BME280;4909;42.680;26.324;2023-12-04T09:24:12;99397.53;;;9.53;56.69
9740;BME280;4909;42.680;26.324;2023-12-04T09:26:39;99409.47;;;9.68;59.26
9740;BME280;4909;42.680;26.324;2023-12-04T09:29:06;99394.63;;;9.60;58.08
9740;BME280;4909;42.680;26.324;2023-12-04T09:31:34;99415.50;;;9.73;57.22
9740;BME280;4909;42.680;26.324;2023-12-04T09:34:01;99407.78;;;9.94;59.00
9740;BME280;4909;42.680;26.324;2023-12-04T09:36:30;99388.38;;;9.92;56.55
9740;BME280;4909;42.680;26.324;2023-12-04T09:38:57;99409.09;;;10.09;55.80
9740;BME280;4909;42.680;26.324;2023-12-04T09:41:24;99406.72;;;9.71;56.70
9740;BME280;4909;42.680;26.324;2023-12-04T09:43:51;99406.53;;;9.46;56.90
9740;BME280;4909;42.680;26.324;2023-12-04T09:46:19;99383.84;;;9.05;57.64
9740;BME280;4909;42.680;26.324;2023-12-04T09:48:46;99406.69;;;9.09;62.94
9740;BME280;4909;42.680;26.324;2023-12-04T09:51:14;99406.81;;;9.03;64.93
9740;BME280;4909;42.680;26.324;2023-12-04T09:53:47;99400.34;;;9.14;67.34
9740;BME280;4909;42.680;26.324;2023-12-04T09:56:15;99352.88;;;8.38;71.42
9740;BME280;4909;42.680;26.324;2023-12-04T09:58:44;99387.88;;;8.50;77.08
9740;BME280;4909;42.680;26.324;2023-12-04T10:01:12;99393.13;;;7.72;83.82
9740;BME280;4909;42.680;26.324;2023-12-04T10:03:40;99408.81;;;7.38;86.54
9740;BME280;4909;42.680;26.324;2023-12-04T10:06:08;99398.41;;;7.30;88.13
9740;BME280;4909;42.680;26.324;2023-12-04T10:08:35;99398.94;;;7.48;86.77
9740;BME280;4909;42.680;26.324;2023-12-04T10:11:04;99399.50;;;7.63;86.14
9740;BME280;4909;42.680;26.324;2023-12-04T10:13:31;99405.84;;;7.96;86.63
9740;BME280;4909;42.680;26.324;2023-12-04T10:15:58;99416.19;;;8.05;85.55
9740;BME280;4909;42.680;26.324;2023-12-04T10:18:26;99414.47;;;8.04;86.00
9740;BME280;4909;42.680;26.324;2023-12-04T10:20:54;99410.28;;;7.94;86.64
9740;BME280;4909;42.680;26.324;2023-12-04T10:23:22;99399.69;;;7.54;87.73
9740;BME280;4909;42.680;26.324;2023-12-04T10:25:50;99418.66;;;7.74;86.97
9740;BME280;4909;42.680;26.324;2023-12-04T10:28:19;99420.16;;;7.86;86.93
9740;BME280;4909;42.680;26.324;2023-12-04T10:30:46;99418.84;;;8.05;86.24
9740;BME280;4909;42.680;26.324;2023-12-04T10:33:13;99411.59;;;8.13;84.91
9740;BME280;4909;42.680;26.324;2023-12-04T10:35:40;99428.31;;;8.15;84.04
9740;BME280;4909;42.680;26.324;2023-12-04T10:38:09;99422.81;;;8.24;84.20
9740;BME280;4909;42.680;26.324;2023-12-04T10:40:36;99365.19;;;8.00;83.57
9740;BME280;4909;42.680;26.324;2023-12-04T10:43:11;99279.63;;;7.67;82.22
9740;BME280;4909;42.680;26.324;2023-12-04T10:45:41;99419.41;;;8.19;83.73
9740;BME280;4909;42.680;26.324;2023-12-04T10:48:09;99414.00;;;8.25;82.99
9740;BME280;4909;42.680;26.324;2023-12-04T10:50:37;99417.75;;;8.15;82.61
9740;BME280;4909;42.680;26.324;2023-12-04T10:53:05;99405.06;;;7.91;82.24
9740;BME280;4909;42.680;26.324;2023-12-04T10:55:33;99380.00;;;7.69;83.08
9740;BME280;4909;42.680;26.324;2023-12-04T10:58:02;99409.97;;;7.68;83.37
9740;BME280;4909;42.680;26.324;2023-12-04T11:00:32;99390.03;;;7.52;84.95
9740;BME280;4909;42.680;26.324;2023-12-04T11:03:06;99415.13;;;7.74;85.68
9740;BME280;4909;42.680;26.324;2023-12-04T11:05:37;99413.75;;;7.98;85.46
9740;BME280;4909;42.680;26.324;2023-12-04T11:08:06;99374.97;;;7.57;84.53
9740;BME280;4909;42.680;26.324;2023-12-04T11:10:36;99401.75;;;7.81;83.84
9740;BME280;4909;42.680;26.324;2023-12-04T11:13:08;99421.34;;;8.13;84.15
9740;BME280;4909;42.680;26.324;2023-12-04T11:15:40;99373.25;;;7.94;82.81
9740;BME280;4909;42.680;26.324;2023-12-04T11:18:12;99430.56;;;8.34;82.14
9740;BME280;4909;42.680;26.324;2023-12-04T11:20:44;99424.13;;;8.47;83.96
9740;BME280;4909;42.680;26.324;2023-12-04T11:23:13;99422.88;;;8.61;83.03
9740;BME280;4909;42.680;26.324;2023-12-04T11:25:41;99391.31;;;8.54;80.86
9740;BME280;4909;42.680;26.324;2023-12-04T11:28:09;99425.09;;;8.78;79.75
9740;BME280;4909;42.680;26.324;2023-12-04T11:30:37;99425.69;;;8.54;80.49
9740;BME280;4909;42.680;26.324;2023-12-04T11:33:05;99418.94;;;8.42;81.00
9740;BME280;4909;42.680;26.324;2023-12-04T11:35:34;99420.63;;;8.45;81.84
9740;BME280;4909;42.680;26.324;2023-12-04T11:38:01;99363.00;;;8.19;81.20
9740;BME280;4909;42.680;26.324;2023-12-04T11:40:28;99389.94;;;8.73;80.45
9740;BME280;4909;42.680;26.324;2023-12-04T11:42:55;99412.88;;;8.72;79.01
9740;BME280;4909;42.680;26.324;2023-12-04T11:45:22;99419.13;;;8.70;80.21
9740;BME280;4909;42.680;26.324;2023-12-04T11:47:50;99425.59;;;8.57;80.63
9740;BME280;4909;42.680;26.324;2023-12-04T11:50:21;99416.78;;;8.58;81.95
9740;BME280;4909;42.680;26.324;2023-12-04T11:52:50;99413.50;;;8.84;78.75
9740;BME280;4909;42.680;26.324;2023-12-04T11:55:18;99374.28;;;8.64;78.37
9740;BME280;4909;42.680;26.324;2023-12-04T11:57:49;99337.06;;;8.36;77.56
9740;BME280;4909;42.680;26.324;2023-12-04T12:00:20;99372.81;;;8.52;79.56
9740;BME280;4909;42.680;26.324;2023-12-04T12:03:01;99339.16;;;8.22;78.67
9740;BME280;4909;42.680;26.324;2023-12-04T12:05:30;99387.00;;;8.50;80.36
9740;BME280;4909;42.680;26.324;2023-12-04T12:08:01;99397.47;;;8.90;78.46
9740;BME280;4909;42.680;26.324;2023-12-04T12:10:29;99384.75;;;9.04;77.82
9740;BME280;4909;42.680;26.324;2023-12-04T12:12:57;99368.06;;;8.66;77.05
9740;BME280;4909;42.680;26.324;2023-12-04T12:15:24;99371.91;;;8.89;77.32
9740;BME280;4909;42.680;26.324;2023-12-04T12:17:51;99350.72;;;8.89;78.35
9740;BME280;4909;42.680;26.324;2023-12-04T12:20:18;99354.03;;;8.97;76.24
9740;BME280;4909;42.680;26.324;2023-12-04T12:22:47;99405.16;;;9.00;77.42
9740;BME280;4909;42.680;26.324;2023-12-04T12:25:17;99393.81;;;8.60;77.45
9740;BME280;4909;42.680;26.324;2023-12-04T12:27:45;99360.03;;;8.34;77.04
9740;BME280;4909;42.680;26.324;2023-12-04T12:30:12;99407.28;;;8.49;79.52
9740;BME280;4909;42.680;26.324;2023-12-04T12:32:39;99406.38;;;8.50;80.83
9740;BME280;4909;42.680;26.324;2023-12-04T12:35:07;99363.75;;;8.25;80.98
9740;BME280;4909;42.680;26.324;2023-12-04T12:37:35;99353.31;;;8.19;79.94
9740;BME280;4909;42.680;26.324;2023-12-04T12:40:04;99407.84;;;8.62;79.31
9740;BME280;4909;42.680;26.324;2023-12-04T12:42:32;99416.84;;;8.56;79.33
9740;BME280;4909;42.680;26.324;2023-12-04T12:45:01;99375.56;;;8.48;80.36
9740;BME280;4909;42.680;26.324;2023-12-04T12:47:29;99396.72;;;8.49;81.27
9740;BME280;4909;42.680;26.324;2023-12-04T12:49:56;99393.56;;;8.69;80.64
9740;BME280;4909;42.680;26.324;2023-12-04T12:52:23;99418.13;;;8.76;81.18
9740;BME280;4909;42.680;26.324;2023-12-04T12:54:51;99365.06;;;8.45;80.91
9740;BME280;4909;42.680;26.324;2023-12-04T12:57:18;99422.69;;;8.69;81.41
9740;BME280;4909;42.680;26.324;2023-12-04T12:59:47;99408.38;;;8.41;80.71
9740;BME280;4909;42.680;26.324;2023-12-04T13:02:14;99405.97;;;8.32;81.67
9740;BME280;4909;42.680;26.324;2023-12-04T13:04:43;99417.88;;;8.49;83.23
9740;BME280;4909;42.680;26.324;2023-12-04T13:07:10;99420.88;;;8.34;81.67
9740;BME280;4909;42.680;26.324;2023-12-04T13:09:37;99409.19;;;8.43;82.43
9740;BME280;4909;42.680;26.324;2023-12-04T13:12:05;99411.06;;;8.39;84.08
9740;BME280;4909;42.680;26.324;2023-12-04T13:14:34;99428.13;;;8.63;82.49
9740;BME280;4909;42.680;26.324;2023-12-04T13:17:03;99404.78;;;8.43;83.14
9740;BME280;4909;42.680;26.324;2023-12-04T13:19:31;99424.50;;;7.89;84.15
9740;BME280;4909;42.680;26.324;2023-12-04T13:22:00;99331.03;;;7.53;85.52